sensor_id;sensor_type;location;lat;lon;timestamp;P1;durP1;ratioP1;P2;durP2;ratioP2
19812;SDS011;10066;48.108;11.448;2023-12-28T00:02:01;4.33;;;2.20;;
19812;SDS011;10066;48.108;11.448;2023-12-28T00:04:28;3.20;;;2.10;;
19812;SDS011;10066;48.108;11.448;2023-12-28T00:06:56;3.37;;;1.57;;
19812;SDS011;10066;48.108;11.448;2023-12-28T00:09:23;3.40;;;2.00;;
19812;SDS011;10066;48.108;11.448;2023-12-28T00:11:50;3.90;;;2.00;;
19812;SDS011;10066;48.108;11.448;2023-12-28T00:14:17;3.40;;;1.90;;
19812;SDS011;10066;48.108;11.448;2023-12-28T00:16:45;3.37;;;1.97;;
19812;SDS011;10066;48.108;11.448;2023-12-28T00:19:12;4.20;;;2.07;;
19812;SDS011;10066;48.108;11.448;2023-12-28T00:24:08;3.97;;;2.30;;
19812;SDS011;10066;48.108;11.448;2023-12-28T00:26:35;2.73;;;1.80;;
19812;SDS011;10066;48.108;11.448;2023-12-28T00:29:02;3.13;;;1.87;;
19812;SDS011;10066;48.108;11.448;2023-12-28T00:31:29;3.50;;;2.07;;
19812;SDS011;10066;48.108;11.448;2023-12-28T00:33:56;4.23;;;2.30;;
19812;SDS011;10066;48.108;11.448;2023-12-28T00:36:23;3.03;;;1.70;;
19812;SDS011;10066;48.108;11.448;2023-12-28T00:38:50;3.60;;;2.07;;
19812;SDS011;10066;48.108;11.448;2023-12-28T00:41:19;3.13;;;1.80;;
19812;SDS011;10066;48.108;11.448;2023-12-28T00:43:46;3.93;;;1.70;;
19812;SDS011;10066;48.108;11.448;2023-12-28T00:46:13;4.47;;;1.93;;
19812;SDS011;10066;48.108;11.448;2023-12-28T00:48:40;3.17;;;1.90;;
19812;SDS011;10066;48.108;11.448;2023-12-28T00:51:07;2.77;;;1.63;;
19812;SDS011;10066;48.108;11.448;2023-12-28T00:53:34;2.53;;;1.50;;
19812;SDS011;10066;48.108;11.448;2023-12-28T00:56:01;2.80;;;1.70;;
19812;SDS011;10066;48.108;11.448;2023-12-28T00:58:30;2.77;;;1.60;;
19812;SDS011;10066;48.108;11.448;2023-12-28T01:00:57;5.07;;;1.90;;
19812;SDS011;10066;48.108;11.448;2023-12-28T01:03:24;4.07;;;2.23;;
19812;SDS011;10066;48.108;11.448;2023-12-28T01:05:51;3.20;;;2.00;;
19812;SDS011;10066;48.108;11.448;2023-12-28T01:08:20;3.23;;;1.80;;
19812;SDS011;10066;48.108;11.448;2023-12-28T01:10:47;2.57;;;1.50;;
19812;SDS011;10066;48.108;11.448;2023-12-28T01:13:15;2.73;;;1.70;;
19812;SDS011;10066;48.108;11.448;2023-12-28T01:15:43;2.60;;;1.80;;
19812;SDS011;10066;48.108;11.448;2023-12-28T01:18:11;3.03;;;1.63;;
19812;SDS011;10066;48.108;11.448;2023-12-28T01:20:38;2.67;;;1.43;;
19812;SDS011;10066;48.108;11.448;2023-12-28T01:23:05;2.07;;;1.47;;
19812;SDS011;10066;48.108;11.448;2023-12-28T01:25:32;3.33;;;1.80;;
19812;SDS011;10066;48.108;11.448;2023-12-28T01:27:59;2.63;;;1.53;;
19812;SDS011;10066;48.108;11.448;2023-12-28T01:30:26;2.37;;;1.40;;
19812;SDS011;10066;48.108;11.448;2023-12-28T01:32:54;3.70;;;1.90;;
19812;SDS011;10066;48.108;11.448;2023-12-28T01:35:21;5.17;;;2.20;;
19812;SDS011;10066;48.108;11.448;2023-12-28T01:37:48;3.03;;;1.77;;
19812;SDS011;10066;48.108;11.448;2023-12-28T01:40:15;4.00;;;1.83;;
19812;SDS011;10066;48.108;11.448;2023-12-28T01:42:44;2.53;;;1.83;;
19812;SDS011;10066;48.108;11.448;2023-12-28T01:45:11;3.00;;;1.60;;
19812;SDS011;10066;48.108;11.448;2023-12-28T01:47:38;2.73;;;1.90;;
19812;SDS011;10066;48.108;11.448;2023-12-28T01:50:09;2.67;;;1.73;;
19812;SDS011;10066;48.108;11.448;2023-12-28T01:52:36;2.87;;;1.70;;
19812;SDS011;10066;48.108;11.448;2023-12-28T01:55:04;4.17;;;1.67;;
19812;SDS011;10066;48.108;11.448;2023-12-28T01:57:33;3.53;;;1.80;;
19812;SDS011;10066;48.108;11.448;2023-12-28T02:00:01;3.03;;;1.73;;
19812;SDS011;10066;48.108;11.448;2023-12-28T02:02:29;4.30;;;2.20;;
19812;SDS011;10066;48.108;11.448;2023-12-28T02:04:57;3.90;;;1.80;;
19812;SDS011;10066;48.108;11.448;2023-12-28T02:07:26;3.30;;;2.00;;
19812;SDS011;10066;48.108;11.448;2023-12-28T02:09:55;4.20;;;1.80;;
19812;SDS011;10066;48.108;11.448;2023-12-28T02:12:22;3.57;;;1.83;;
19812;SDS011;10066;48.108;11.448;2023-12-28T02:14:49;2.47;;;1.53;;
19812;SDS011;10066;48.108;11.448;2023-12-28T02:17:19;2.80;;;1.70;;
19812;SDS011;10066;48.108;11.448;2023-12-28T02:19:54;2.90;;;1.57;;
19812;SDS011;10066;48.108;11.448;2023-12-28T02:22:23;3.07;;;1.70;;
19812;SDS011;10066;48.108;11.448;2023-12-28T02:25:14;2.53;;;1.60;;
19812;SDS011;10066;48.108;11.448;2023-12-28T02:27:42;3.57;;;1.80;;
19812;SDS011;10066;48.108;11.448;2023-12-28T02:30:11;3.57;;;2.00;;
19812;SDS011;10066;48.108;11.448;2023-12-28T02:32:42;3.00;;;1.90;;
19812;SDS011;10066;48.108;11.448;2023-12-28T02:35:16;4.00;;;1.67;;
19812;SDS011;10066;48.108;11.448;2023-12-28T02:37:47;3.33;;;1.83;;
19812;SDS011;10066;48.108;11.448;2023-12-28T02:50:15;1.60;;;1.00;;
19812;SDS011;10066;48.108;11.448;2023-12-28T02:52:42;3.13;;;1.57;;
19812;SDS011;10066;48.108;11.448;2023-12-28T02:55:09;2.87;;;1.30;;
19812;SDS011;10066;48.108;11.448;2023-12-28T02:57:37;3.70;;;1.67;;
19812;SDS011;10066;48.108;11.448;2023-12-28T03:00:05;2.47;;;1.50;;
19812;SDS011;10066;48.108;11.448;2023-12-28T03:02:34;1.87;;;1.10;;
19812;SDS011;10066;48.108;11.448;2023-12-28T03:05:02;4.83;;;1.40;;
19812;SDS011;10066;48.108;11.448;2023-12-28T03:07:32;2.47;;;1.50;;
19812;SDS011;10066;48.108;11.448;2023-12-28T03:09:59;2.90;;;1.50;;
19812;SDS011;10066;48.108;11.448;2023-12-28T03:12:28;2.37;;;1.40;;
19812;SDS011;10066;48.108;11.448;2023-12-28T03:14:55;3.53;;;1.47;;
19812;SDS011;10066;48.108;11.448;2023-12-28T03:17:22;2.00;;;1.23;;
19812;SDS011;10066;48.108;11.448;2023-12-28T03:19:49;3.40;;;1.30;;
19812;SDS011;10066;48.108;11.448;2023-12-28T03:22:16;3.83;;;1.50;;
19812;SDS011;10066;48.108;11.448;2023-12-28T03:24:46;3.20;;;1.50;;
19812;SDS011;10066;48.108;11.448;2023-12-28T03:27:13;1.87;;;1.20;;
19812;SDS011;10066;48.108;11.448;2023-12-28T03:29:41;2.27;;;1.33;;
19812;SDS011;10066;48.108;11.448;2023-12-28T03:32:08;2.37;;;1.43;;
19812;SDS011;10066;48.108;11.448;2023-12-28T03:34:35;2.40;;;1.40;;
19812;SDS011;10066;48.108;11.448;2023-12-28T03:37:02;2.43;;;1.43;;
19812;SDS011;10066;48.108;11.448;2023-12-28T03:39:30;2.13;;;1.30;;
19812;SDS011;10066;48.108;11.448;2023-12-28T03:41:58;1.50;;;1.20;;
19812;SDS011;10066;48.108;11.448;2023-12-28T03:44:25;1.90;;;1.13;;
19812;SDS011;10066;48.108;11.448;2023-12-28T03:46:52;1.90;;;1.00;;
19812;SDS011;10066;48.108;11.448;2023-12-28T03:49:19;2.50;;;0.97;;
19812;SDS011;10066;48.108;11.448;2023-12-28T03:51:47;1.50;;;0.97;;
19812;SDS011;10066;48.108;11.448;2023-12-28T03:54:16;1.50;;;1.03;;
19812;SDS011;10066;48.108;11.448;2023-12-28T03:56:43;1.60;;;0.80;;
19812;SDS011;10066;48.108;11.448;2023-12-28T03:59:13;2.57;;;1.00;;
19812;SDS011;10066;48.108;11.448;2023-12-28T04:01:41;0.90;;;0.60;;
19812;SDS011;10066;48.108;11.448;2023-12-28T04:04:08;1.50;;;0.93;;
19812;SDS011;10066;48.108;11.448;2023-12-28T04:06:35;1.30;;;0.80;;
19812;SDS011;10066;48.108;11.448;2023-12-28T04:09:03;1.40;;;0.80;;
19812;SDS011;10066;48.108;11.448;2023-12-28T04:11:30;1.53;;;0.80;;
19812;SDS011;10066;48.108;11.448;2023-12-28T04:13:57;1.00;;;0.70;;
19812;SDS011;10066;48.108;11.448;2023-12-28T04:16:26;2.03;;;0.90;;
19812;SDS011;10066;48.108;11.448;2023-12-28T04:18:53;1.30;;;0.87;;
19812;SDS011;10066;48.108;11.448;2023-12-28T04:21:20;1.13;;;0.63;;
19812;SDS011;10066;48.108;11.448;2023-12-28T04:23:48;1.10;;;0.73;;
19812;SDS011;10066;48.108;11.448;2023-12-28T04:26:17;1.00;;;0.80;;
19812;SDS011;10066;48.108;11.448;2023-12-28T04:28:44;1.07;;;0.70;;
19812;SDS011;10066;48.108;11.448;2023-12-28T04:31:11;1.20;;;0.80;;
19812;SDS011;10066;48.108;11.448;2023-12-28T04:33:40;1.20;;;0.60;;
19812;SDS011;10066;48.108;11.448;2023-12-28T04:36:07;1.30;;;0.70;;
19812;SDS011;10066;48.108;11.448;2023-12-28T04:38:34;0.83;;;0.63;;
19812;SDS011;10066;48.108;11.448;2023-12-28T04:41:01;1.37;;;0.73;;
19812;SDS011;10066;48.108;11.448;2023-12-28T04:43:28;1.50;;;0.73;;
19812;SDS011;10066;48.108;11.448;2023-12-28T04:45:55;0.63;;;0.60;;
19812;SDS011;10066;48.108;11.448;2023-12-28T04:48:22;0.87;;;0.60;;
19812;SDS011;10066;48.108;11.448;2023-12-28T04:50:56;1.33;;;0.77;;
19812;SDS011;10066;48.108;11.448;2023-12-28T04:53:23;1.00;;;0.60;;
19812;SDS011;10066;48.108;11.448;2023-12-28T04:55:50;1.50;;;0.57;;
19812;SDS011;10066;48.108;11.448;2023-12-28T04:58:17;1.10;;;0.77;;
19812;SDS011;10066;48.108;11.448;2023-12-28T05:00:44;1.10;;;0.80;;
19812;SDS011;10066;48.108;11.448;2023-12-28T05:03:11;0.87;;;0.50;;
19812;SDS011;10066;48.108;11.448;2023-12-28T05:05:38;1.17;;;0.70;;
19812;SDS011;10066;48.108;11.448;2023-12-28T05:08:06;1.10;;;0.50;;
19812;SDS011;10066;48.108;11.448;2023-12-28T05:10:33;1.10;;;0.73;;
19812;SDS011;10066;48.108;11.448;2023-12-28T05:13:00;0.60;;;0.50;;
19812;SDS011;10066;48.108;11.448;2023-12-28T05:15:27;1.80;;;0.60;;
19812;SDS011;10066;48.108;11.448;2023-12-28T05:17:54;0.90;;;0.50;;
19812;SDS011;10066;48.108;11.448;2023-12-28T05:20:21;0.77;;;0.53;;
19812;SDS011;10066;48.108;11.448;2023-12-28T05:22:49;0.87;;;0.50;;
19812;SDS011;10066;48.108;11.448;2023-12-28T05:25:18;2.83;;;0.87;;
19812;SDS011;10066;48.108;11.448;2023-12-28T05:27:45;1.57;;;0.83;;
19812;SDS011;10066;48.108;11.448;2023-12-28T05:30:12;1.87;;;0.93;;
19812;SDS011;10066;48.108;11.448;2023-12-28T05:32:39;2.00;;;1.10;;
19812;SDS011;10066;48.108;11.448;2023-12-28T05:35:06;1.73;;;1.07;;
19812;SDS011;10066;48.108;11.448;2023-12-28T05:37:33;2.20;;;1.00;;
19812;SDS011;10066;48.108;11.448;2023-12-28T05:40:00;1.87;;;1.00;;
19812;SDS011;10066;48.108;11.448;2023-12-28T05:42:29;1.47;;;1.00;;
19812;SDS011;10066;48.108;11.448;2023-12-28T05:44:56;2.50;;;1.20;;
19812;SDS011;10066;48.108;11.448;2023-12-28T05:47:23;1.37;;;0.93;;
19812;SDS011;10066;48.108;11.448;2023-12-28T05:49:50;2.30;;;1.00;;
19812;SDS011;10066;48.108;11.448;2023-12-28T05:52:17;2.73;;;1.00;;
19812;SDS011;10066;48.108;11.448;2023-12-28T05:54:44;2.07;;;1.10;;
19812;SDS011;10066;48.108;11.448;2023-12-28T05:57:13;2.80;;;1.00;;
19812;SDS011;10066;48.108;11.448;2023-12-28T05:59:41;1.30;;;0.90;;
19812;SDS011;10066;48.108;11.448;2023-12-28T06:02:08;1.80;;;1.00;;
19812;SDS011;10066;48.108;11.448;2023-12-28T06:04:35;1.97;;;0.70;;
19812;SDS011;10066;48.108;11.448;2023-12-28T06:07:03;1.57;;;1.00;;
19812;SDS011;10066;48.108;11.448;2023-12-28T06:09:29;1.77;;;0.70;;
19812;SDS011;10066;48.108;11.448;2023-12-28T06:11:56;1.13;;;0.80;;
19812;SDS011;10066;48.108;11.448;2023-12-28T06:14:23;1.43;;;0.83;;
19812;SDS011;10066;48.108;11.448;2023-12-28T06:16:51;1.10;;;0.77;;
19812;SDS011;10066;48.108;11.448;2023-12-28T06:19:18;1.43;;;0.70;;
19812;SDS011;10066;48.108;11.448;2023-12-28T06:21:45;1.47;;;0.90;;
19812;SDS011;10066;48.108;11.448;2023-12-28T06:24:13;1.63;;;0.90;;
19812;SDS011;10066;48.108;11.448;2023-12-28T06:26:40;2.07;;;0.83;;
19812;SDS011;10066;48.108;11.448;2023-12-28T06:29:08;1.87;;;1.07;;
19812;SDS011;10066;48.108;11.448;2023-12-28T06:31:35;1.67;;;1.10;;
19812;SDS011;10066;48.108;11.448;2023-12-28T06:34:03;2.10;;;1.03;;
19812;SDS011;10066;48.108;11.448;2023-12-28T06:36:31;2.27;;;1.07;;
19812;SDS011;10066;48.108;11.448;2023-12-28T06:38:58;2.10;;;1.40;;
19812;SDS011;10066;48.108;11.448;2023-12-28T06:41:25;4.13;;;1.77;;
19812;SDS011;10066;48.108;11.448;2023-12-28T06:43:53;3.70;;;1.57;;
19812;SDS011;10066;48.108;11.448;2023-12-28T06:46:20;2.67;;;1.47;;
19812;SDS011;10066;48.108;11.448;2023-12-28T06:48:47;2.00;;;0.87;;
19812;SDS011;10066;48.108;11.448;2023-12-28T06:51:19;1.90;;;1.10;;
19812;SDS011;10066;48.108;11.448;2023-12-28T06:53:47;1.27;;;0.87;;
19812;SDS011;10066;48.108;11.448;2023-12-28T06:56:14;2.03;;;0.80;;
19812;SDS011;10066;48.108;11.448;2023-12-28T06:58:42;1.30;;;0.90;;
19812;SDS011;10066;48.108;11.448;2023-12-28T07:01:09;1.70;;;0.90;;
19812;SDS011;10066;48.108;11.448;2023-12-28T07:03:36;3.57;;;0.80;;
19812;SDS011;10066;48.108;11.448;2023-12-28T07:06:03;1.40;;;0.73;;
19812;SDS011;10066;48.108;11.448;2023-12-28T07:08:31;2.60;;;0.80;;
19812;SDS011;10066;48.108;11.448;2023-12-28T07:10:58;2.07;;;1.00;;
19812;SDS011;10066;48.108;11.448;2023-12-28T07:13:25;1.50;;;0.80;;
19812;SDS011;10066;48.108;11.448;2023-12-28T07:15:52;2.17;;;0.70;;
19812;SDS011;10066;48.108;11.448;2023-12-28T07:18:19;0.90;;;0.60;;
19812;SDS011;10066;48.108;11.448;2023-12-28T07:20:47;2.87;;;1.00;;
19812;SDS011;10066;48.108;11.448;2023-12-28T07:23:14;1.37;;;0.77;;
19812;SDS011;10066;48.108;11.448;2023-12-28T07:25:43;1.23;;;0.70;;
19812;SDS011;10066;48.108;11.448;2023-12-28T07:30:41;2.27;;;1.20;;
19812;SDS011;10066;48.108;11.448;2023-12-28T07:33:08;3.83;;;1.23;;
19812;SDS011;10066;48.108;11.448;2023-12-28T07:35:36;1.67;;;0.90;;
19812;SDS011;10066;48.108;11.448;2023-12-28T07:38:03;1.60;;;0.97;;
19812;SDS011;10066;48.108;11.448;2023-12-28T07:40:31;1.97;;;0.80;;
19812;SDS011;10066;48.108;11.448;2023-12-28T07:42:59;2.07;;;1.00;;
19812;SDS011;10066;48.108;11.448;2023-12-28T07:45:27;2.33;;;1.30;;
19812;SDS011;10066;48.108;11.448;2023-12-28T07:47:54;1.63;;;1.20;;
19812;SDS011;10066;48.108;11.448;2023-12-28T07:50:21;2.10;;;1.00;;
19812;SDS011;10066;48.108;11.448;2023-12-28T07:52:49;4.23;;;1.20;;
19812;SDS011;10066;48.108;11.448;2023-12-28T07:55:17;2.27;;;1.30;;
19812;SDS011;10066;48.108;11.448;2023-12-28T07:57:44;2.40;;;1.43;;
19812;SDS011;10066;48.108;11.448;2023-12-28T08:00:13;2.17;;;1.30;;
19812;SDS011;10066;48.108;11.448;2023-12-28T08:02:41;2.47;;;1.20;;
19812;SDS011;10066;48.108;11.448;2023-12-28T08:05:08;2.47;;;1.13;;
19812;SDS011;10066;48.108;11.448;2023-12-28T08:07:35;2.00;;;0.90;;
19812;SDS011;10066;48.108;11.448;2023-12-28T08:10:02;2.43;;;1.10;;
19812;SDS011;10066;48.108;11.448;2023-12-28T08:12:30;2.07;;;1.10;;
19812;SDS011;10066;48.108;11.448;2023-12-28T08:14:58;2.50;;;1.40;;
19812;SDS011;10066;48.108;11.448;2023-12-28T08:17:27;3.17;;;1.30;;
19812;SDS011;10066;48.108;11.448;2023-12-28T08:19:54;2.50;;;1.10;;
19812;SDS011;10066;48.108;11.448;2023-12-28T08:22:21;3.17;;;1.00;;
19812;SDS011;10066;48.108;11.448;2023-12-28T08:24:49;2.03;;;1.20;;
19812;SDS011;10066;48.108;11.448;2023-12-28T08:27:16;3.40;;;1.20;;
19812;SDS011;10066;48.108;11.448;2023-12-28T08:29:43;2.77;;;1.23;;
19812;SDS011;10066;48.108;11.448;2023-12-28T08:32:10;1.63;;;1.00;;
19812;SDS011;10066;48.108;11.448;2023-12-28T08:34:39;2.33;;;1.33;;
19812;SDS011;10066;48.108;11.448;2023-12-28T08:37:06;2.07;;;1.30;;
19812;SDS011;10066;48.108;11.448;2023-12-28T08:39:33;3.00;;;0.95;;
19812;SDS011;10066;48.108;11.448;2023-12-28T08:42:00;2.10;;;1.30;;
19812;SDS011;10066;48.108;11.448;2023-12-28T08:44:28;3.80;;;1.20;;
19812;SDS011;10066;48.108;11.448;2023-12-28T08:46:55;1.27;;;0.93;;
19812;SDS011;10066;48.108;11.448;2023-12-28T08:49:22;1.63;;;1.00;;
19812;SDS011;10066;48.108;11.448;2023-12-28T08:51:50;2.10;;;1.20;;
19812;SDS011;10066;48.108;11.448;2023-12-28T08:54:17;4.00;;;1.13;;
19812;SDS011;10066;48.108;11.448;2023-12-28T08:56:45;2.33;;;1.10;;
19812;SDS011;10066;48.108;11.448;2023-12-28T08:59:13;1.00;;;0.70;;
19812;SDS011;10066;48.108;11.448;2023-12-28T09:01:40;2.90;;;1.10;;
19812;SDS011;10066;48.108;11.448;2023-12-28T09:04:07;2.30;;;0.90;;
19812;SDS011;10066;48.108;11.448;2023-12-28T09:06:34;2.00;;;0.77;;
19812;SDS011;10066;48.108;11.448;2023-12-28T09:09:03;3.33;;;0.90;;
19812;SDS011;10066;48.108;11.448;2023-12-28T09:11:31;1.63;;;0.90;;
19812;SDS011;10066;48.108;11.448;2023-12-28T09:13:58;1.57;;;0.70;;
19812;SDS011;10066;48.108;11.448;2023-12-28T09:16:25;1.47;;;0.80;;
19812;SDS011;10066;48.108;11.448;2023-12-28T09:18:53;1.33;;;0.90;;
19812;SDS011;10066;48.108;11.448;2023-12-28T09:21:20;1.73;;;0.80;;
19812;SDS011;10066;48.108;11.448;2023-12-28T09:23:47;2.13;;;0.87;;
19812;SDS011;10066;48.108;11.448;2023-12-28T09:26:16;1.20;;;0.90;;
19812;SDS011;10066;48.108;11.448;2023-12-28T09:28:43;1.27;;;1.07;;
19812;SDS011;10066;48.108;11.448;2023-12-28T09:31:10;3.00;;;0.90;;
19812;SDS011;10066;48.108;11.448;2023-12-28T09:33:37;2.33;;;1.20;;
19812;SDS011;10066;48.108;11.448;2023-12-28T09:36:05;1.97;;;1.27;;
19812;SDS011;10066;48.108;11.448;2023-12-28T09:38:33;2.27;;;1.10;;
19812;SDS011;10066;48.108;11.448;2023-12-28T09:41:03;3.83;;;1.17;;
19812;SDS011;10066;48.108;11.448;2023-12-28T09:43:40;1.23;;;0.73;;
19812;SDS011;10066;48.108;11.448;2023-12-28T09:46:19;2.97;;;1.73;;
19812;SDS011;10066;48.108;11.448;2023-12-28T09:48:46;2.03;;;1.20;;
19812;SDS011;10066;48.108;11.448;2023-12-28T09:51:13;2.87;;;0.77;;
19812;SDS011;10066;48.108;11.448;2023-12-28T09:53:41;2.93;;;0.90;;
19812;SDS011;10066;48.108;11.448;2023-12-28T09:56:09;0.97;;;0.70;;
19812;SDS011;10066;48.108;11.448;2023-12-28T10:01:07;0.83;;;0.70;;
19812;SDS011;10066;48.108;11.448;2023-12-28T10:03:35;1.10;;;0.60;;
19812;SDS011;10066;48.108;11.448;2023-12-28T10:06:03;1.33;;;0.77;;
19812;SDS011;10066;48.108;11.448;2023-12-28T10:08:30;0.87;;;0.67;;
19812;SDS011;10066;48.108;11.448;2023-12-28T10:10:57;4.43;;;0.73;;
19812;SDS011;10066;48.108;11.448;2023-12-28T10:13:26;1.00;;;0.70;;
19812;SDS011;10066;48.108;11.448;2023-12-28T10:15:56;1.10;;;0.70;;
19812;SDS011;10066;48.108;11.448;2023-12-28T10:18:25;2.57;;;0.70;;
19812;SDS011;10066;48.108;11.448;2023-12-28T10:20:53;0.77;;;0.60;;
19812;SDS011;10066;48.108;11.448;2023-12-28T10:23:20;2.57;;;1.37;;
19812;SDS011;10066;48.108;11.448;2023-12-28T10:25:48;0.93;;;0.80;;
19812;SDS011;10066;48.108;11.448;2023-12-28T10:28:18;1.20;;;0.87;;
19812;SDS011;10066;48.108;11.448;2023-12-28T10:30:46;2.20;;;0.90;;
19812;SDS011;10066;48.108;11.448;2023-12-28T10:33:13;1.33;;;0.77;;
19812;SDS011;10066;48.108;11.448;2023-12-28T10:35:42;0.90;;;0.80;;
19812;SDS011;10066;48.108;11.448;2023-12-28T10:38:10;2.03;;;0.80;;
19812;SDS011;10066;48.108;11.448;2023-12-28T10:40:42;1.83;;;0.80;;
19812;SDS011;10066;48.108;11.448;2023-12-28T10:43:15;1.47;;;1.17;;
19812;SDS011;10066;48.108;11.448;2023-12-28T10:45:46;2.27;;;1.60;;
19812;SDS011;10066;48.108;11.448;2023-12-28T10:48:17;1.97;;;0.90;;
19812;SDS011;10066;48.108;11.448;2023-12-28T10:50:54;1.37;;;0.83;;
19812;SDS011;10066;48.108;11.448;2023-12-28T10:53:26;1.00;;;0.63;;
19812;SDS011;10066;48.108;11.448;2023-12-28T10:56:04;1.23;;;0.80;;
19812;SDS011;10066;48.108;11.448;2023-12-28T10:58:42;2.40;;;0.80;;
19812;SDS011;10066;48.108;11.448;2023-12-28T11:01:14;2.10;;;1.07;;
19812;SDS011;10066;48.108;11.448;2023-12-28T11:03:48;4.30;;;1.07;;
19812;SDS011;10066;48.108;11.448;2023-12-28T11:06:21;1.17;;;0.70;;
19812;SDS011;10066;48.108;11.448;2023-12-28T11:08:48;1.13;;;0.80;;
19812;SDS011;10066;48.108;11.448;2023-12-28T11:11:18;2.00;;;0.90;;
19812;SDS011;10066;48.108;11.448;2023-12-28T11:13:47;1.20;;;0.87;;
19812;SDS011;10066;48.108;11.448;2023-12-28T11:16:16;1.63;;;0.70;;
19812;SDS011;10066;48.108;11.448;2023-12-28T11:18:44;2.60;;;0.70;;
19812;SDS011;10066;48.108;11.448;2023-12-28T11:21:12;2.07;;;0.77;;
19812;SDS011;10066;48.108;11.448;2023-12-28T11:23:41;1.30;;;0.80;;
19812;SDS011;10066;48.108;11.448;2023-12-28T11:26:15;1.23;;;0.80;;
19812;SDS011;10066;48.108;11.448;2023-12-28T11:28:44;2.57;;;0.70;;
19812;SDS011;10066;48.108;11.448;2023-12-28T11:31:13;0.90;;;0.57;;
19812;SDS011;10066;48.108;11.448;2023-12-28T11:33:44;1.50;;;0.90;;
19812;SDS011;10066;48.108;11.448;2023-12-28T11:36:12;2.63;;;0.80;;
19812;SDS011;10066;48.108;11.448;2023-12-28T11:38:50;1.30;;;0.80;;
19812;SDS011;10066;48.108;11.448;2023-12-28T11:41:19;4.67;;;0.87;;
19812;SDS011;10066;48.108;11.448;2023-12-28T11:43:51;3.83;;;0.90;;
19812;SDS011;10066;48.108;11.448;2023-12-28T11:46:20;2.30;;;0.80;;
19812;SDS011;10066;48.108;11.448;2023-12-28T11:48:48;2.13;;;1.10;;
19812;SDS011;10066;48.108;11.448;2023-12-28T11:51:15;1.33;;;0.90;;
19812;SDS011;10066;48.108;11.448;2023-12-28T11:53:43;1.03;;;0.70;;
19812;SDS011;10066;48.108;11.448;2023-12-28T11:56:16;2.37;;;0.90;;
19812;SDS011;10066;48.108;11.448;2023-12-28T11:58:43;0.83;;;0.70;;
19812;SDS011;10066;48.108;11.448;2023-12-28T12:01:12;0.93;;;0.70;;
19812;SDS011;10066;48.108;11.448;2023-12-28T12:03:39;2.03;;;0.70;;
19812;SDS011;10066;48.108;11.448;2023-12-28T12:06:06;1.40;;;0.70;;
19812;SDS011;10066;48.108;11.448;2023-12-28T12:08:33;1.20;;;0.70;;
19812;SDS011;10066;48.108;11.448;2023-12-28T12:11:01;1.63;;;0.90;;
19812;SDS011;10066;48.108;11.448;2023-12-28T12:13:30;1.17;;;0.87;;
19812;SDS011;10066;48.108;11.448;2023-12-28T12:15:58;0.70;;;0.60;;
19812;SDS011;10066;48.108;11.448;2023-12-28T12:20:58;2.80;;;0.77;;
19812;SDS011;10066;48.108;11.448;2023-12-28T12:28:21;3.60;;;0.80;;
19812;SDS011;10066;48.108;11.448;2023-12-28T12:30:54;1.97;;;1.10;;
19812;SDS011;10066;48.108;11.448;2023-12-28T12:33:22;1.17;;;0.83;;
19812;SDS011;10066;48.108;11.448;2023-12-28T12:35:52;2.47;;;0.90;;
19812;SDS011;10066;48.108;11.448;2023-12-28T12:38:21;1.67;;;0.90;;
19812;SDS011;10066;48.108;11.448;2023-12-28T12:40:50;1.87;;;1.00;;
19812;SDS011;10066;48.108;11.448;2023-12-28T12:43:17;2.53;;;1.30;;
19812;SDS011;10066;48.108;11.448;2023-12-28T12:45:45;1.67;;;0.90;;
19812;SDS011;10066;48.108;11.448;2023-12-28T12:48:14;2.07;;;1.17;;
19812;SDS011;10066;48.108;11.448;2023-12-28T12:50:41;2.67;;;1.10;;
19812;SDS011;10066;48.108;11.448;2023-12-28T12:53:09;2.43;;;0.90;;
19812;SDS011;10066;48.108;11.448;2023-12-28T12:55:36;1.00;;;0.77;;
19812;SDS011;10066;48.108;11.448;2023-12-28T12:58:04;1.57;;;1.00;;
19812;SDS011;10066;48.108;11.448;2023-12-28T13:00:31;1.80;;;0.90;;
19812;SDS011;10066;48.108;11.448;2023-12-28T13:03:00;5.40;;;0.90;;
19812;SDS011;10066;48.108;11.448;2023-12-28T13:05:30;1.60;;;0.90;;
19812;SDS011;10066;48.108;11.448;2023-12-28T13:07:57;2.53;;;1.00;;
19812;SDS011;10066;48.108;11.448;2023-12-28T13:10:24;4.53;;;1.50;;
19812;SDS011;10066;48.108;11.448;2023-12-28T13:12:51;2.87;;;1.80;;
19812;SDS011;10066;48.108;11.448;2023-12-28T13:15:18;2.27;;;1.30;;
19812;SDS011;10066;48.108;11.448;2023-12-28T13:17:45;2.13;;;0.90;;
19812;SDS011;10066;48.108;11.448;2023-12-28T13:20:12;1.60;;;0.90;;
19812;SDS011;10066;48.108;11.448;2023-12-28T13:22:44;1.63;;;0.80;;
19812;SDS011;10066;48.108;11.448;2023-12-28T13:25:12;2.30;;;1.27;;
19812;SDS011;10066;48.108;11.448;2023-12-28T13:27:39;1.93;;;1.23;;
19812;SDS011;10066;48.108;11.448;2023-12-28T13:30:06;3.00;;;1.10;;
19812;SDS011;10066;48.108;11.448;2023-12-28T13:40:00;2.93;;;1.40;;
19812;SDS011;10066;48.108;11.448;2023-12-28T13:44:55;2.00;;;1.10;;
19812;SDS011;10066;48.108;11.448;2023-12-28T13:49:50;2.07;;;1.00;;
19812;SDS011;10066;48.108;11.448;2023-12-28T13:54:45;3.73;;;1.50;;
19812;SDS011;10066;48.108;11.448;2023-12-28T13:57:13;4.43;;;1.30;;
19812;SDS011;10066;48.108;11.448;2023-12-28T13:59:40;1.67;;;1.33;;
19812;SDS011;10066;48.108;11.448;2023-12-28T14:04:35;2.40;;;1.40;;
19812;SDS011;10066;48.108;11.448;2023-12-28T14:07:02;2.37;;;1.40;;
19812;SDS011;10066;48.108;11.448;2023-12-28T14:09:30;1.87;;;1.23;;
19812;SDS011;10066;48.108;11.448;2023-12-28T14:11:58;3.40;;;1.37;;
19812;SDS011;10066;48.108;11.448;2023-12-28T14:14:27;2.67;;;1.30;;
19812;SDS011;10066;48.108;11.448;2023-12-28T14:16:53;3.57;;;1.40;;
19812;SDS011;10066;48.108;11.448;2023-12-28T14:19:20;2.27;;;1.23;;
19812;SDS011;10066;48.108;11.448;2023-12-28T14:21:48;2.10;;;1.10;;
19812;SDS011;10066;48.108;11.448;2023-12-28T14:24:16;2.73;;;1.07;;
19812;SDS011;10066;48.108;11.448;2023-12-28T14:26:43;3.23;;;1.27;;
19812;SDS011;10066;48.108;11.448;2023-12-28T14:29:11;4.17;;;1.53;;
19812;SDS011;10066;48.108;11.448;2023-12-28T14:31:43;3.17;;;1.30;;
19812;SDS011;10066;48.108;11.448;2023-12-28T14:34:11;2.07;;;1.33;;
19812;SDS011;10066;48.108;11.448;2023-12-28T14:36:39;2.43;;;1.40;;
19812;SDS011;10066;48.108;11.448;2023-12-28T14:39:07;3.40;;;1.63;;
19812;SDS011;10066;48.108;11.448;2023-12-28T14:41:35;4.53;;;2.00;;
19812;SDS011;10066;48.108;11.448;2023-12-28T14:44:03;2.53;;;1.67;;
19812;SDS011;10066;48.108;11.448;2023-12-28T14:51:32;4.90;;;1.77;;
19812;SDS011;10066;48.108;11.448;2023-12-28T14:56:26;2.97;;;1.53;;
19812;SDS011;10066;48.108;11.448;2023-12-28T14:58:54;3.07;;;1.40;;
19812;SDS011;10066;48.108;11.448;2023-12-28T15:01:21;2.83;;;1.63;;
19812;SDS011;10066;48.108;11.448;2023-12-28T15:03:48;3.43;;;1.93;;
19812;SDS011;10066;48.108;11.448;2023-12-28T15:06:17;4.87;;;2.37;;
19812;SDS011;10066;48.108;11.448;2023-12-28T15:11:24;3.53;;;2.20;;
19812;SDS011;10066;48.108;11.448;2023-12-28T15:13:51;2.27;;;1.57;;
19812;SDS011;10066;48.108;11.448;2023-12-28T15:16:19;3.80;;;1.40;;
19812;SDS011;10066;48.108;11.448;2023-12-28T15:18:47;3.73;;;1.33;;
19812;SDS011;10066;48.108;11.448;2023-12-28T15:21:14;4.30;;;1.33;;
19812;SDS011;10066;48.108;11.448;2023-12-28T15:26:18;3.03;;;1.70;;
19812;SDS011;10066;48.108;11.448;2023-12-28T15:28:47;3.63;;;1.90;;
19812;SDS011;10066;48.108;11.448;2023-12-28T15:31:14;2.03;;;1.43;;
19812;SDS011;10066;48.108;11.448;2023-12-28T15:33:41;4.67;;;1.97;;